Time;durP1;ratioP1;P1;durP2;ratioP2;P2;SDS_P1;SDS_P2;PMS_P1;PMS_P2;Temp;Humidity;BMP_temperature;BMP_pressure;BME280_temperature;BME280_humidity;BME280_pressure;Samples;Min_cycle;Max_cycle;Signal;HPM_P1;HPM_P2
2022/09/01 00:00:13;;;;;;;5.68;1.42;;;;;;;18.13;91.79;101219.44;4995559;28;20030;-85
2022/09/01 00:02:39;;;;;;;6.65;1.08;;;;;;;17.99;92.67;101217.13;4995579;28;20365;-85
2022/09/01 00:05:06;;;;;;;1.80;0.95;;;;;;;18.01;92.98;101213.38;4995281;28;20037;-86
2022/09/01 00:07:34;;;;;;;4.38;1.55;;;;;;;18.10;92.48;101218.84;4995403;28;20404;-85
2022/09/01 00:10:00;;;;;;;3.75;1.10;;;;;;;17.99;93.21;101211.81;4997968;28;20365;-85
2022/09/01 00:12:27;;;;;;;3.17;1.25;;;;;;;17.93;93.76;101207.03;4995059;28;20048;-85
2022/09/01 00:14:53;;;;;;;5.97;1.40;;;;;;;17.70;95.59;101198.38;4995329;28;20066;-85
2022/09/01 00:17:18;;;;;;;4.72;1.27;;;;;;;17.73;96.03;101198.94;4995240;28;20057;-85
2022/09/01 00:19:44;;;;;;;3.35;1.08;;;;;;;17.79;96.07;101200.22;4995311;28;20547;-85
2022/09/01 00:22:09;;;;;;;2.75;1.15;;;;;;;17.92;95.13;101202.69;4995175;28;20032;-85
2022/09/01 00:24:35;;;;;;;5.53;1.40;;;;;;;17.78;95.93;101199.38;4997009;28;20061;-85
2022/09/01 00:27:00;;;;;;;4.75;1.35;;;;;;;17.73;96.55;101204.25;4996964;28;20033;-85
2022/09/01 00:29:25;;;;;;;6.70;1.52;;;;;;;17.59;97.69;101199.25;4993836;28;20026;-85
2022/09/01 00:31:51;;;;;;;4.25;1.30;;;;;;;17.80;96.25;101196.59;4993861;28;20033;-85
2022/09/01 00:34:17;;;;;;;5.53;1.35;;;;;;;17.38;98.75;101197.47;4994904;28;20075;-85
2022/09/01 00:36:42;;;;;;;5.53;1.38;;;;;;;17.55;98.36;101192.53;4994888;28;20073;-85
2022/09/01 00:39:08;;;;;;;4.75;1.60;;;;;;;17.56;98.80;101195.06;4995393;28;20041;-85
2022/09/01 00:41:43;;;;;;;5.55;1.25;;;;;;;17.74;97.63;101195.31;4996158;28;20030;-85
2022/09/01 00:44:13;;;;;;;17.20;2.13;;;;;;;17.47;99.51;101195.00;4994804;28;20034;-85
2022/09/01 00:46:42;;;;;;;4.88;1.55;;;;;;;17.16;100.00;101181.63;4994678;28;20121;-85
2022/09/01 00:49:10;;;;;;;6.88;1.38;;;;;;;17.28;100.00;101185.06;4994468;28;20038;-85
2022/09/01 00:51:37;;;;;;;2.80;1.10;;;;;;;17.11;100.00;101189.16;4994746;28;20499;-85
2022/09/01 00:54:05;;;;;;;12.80;1.73;;;;;;;17.29;100.00;101184.97;4994769;28;20030;-85
2022/09/01 00:56:32;;;;;;;6.13;2.08;;;;;;;17.29;100.00;101182.31;4996929;28;20034;-85
2022/09/01 00:58:58;;;;;;;4.15;1.00;;;;;;;17.31;100.00;101182.19;4994306;28;20161;-85
2022/09/01 01:01:24;;;;;;;7.03;1.58;;;;;;;17.28;100.00;101179.78;4994283;28;20054;-85
2022/09/01 01:03:49;;;;;;;5.15;1.33;;;;;;;17.39;100.00;101188.50;4994645;28;20049;-85
2022/09/01 01:06:15;;;;;;;6.70;1.17;;;;;;;17.48;100.00;101180.75;4994286;28;20026;-85
2022/09/01 01:08:56;;;;;;;10.98;1.13;;;;;;;17.48;100.00;101172.81;4993173;28;20050;-85
2022/09/01 01:11:23;;;;;;;4.72;1.23;;;;;;;17.30;100.00;101176.03;4996244;28;20116;-85
2022/09/01 01:13:54;;;;;;;7.88;1.70;;;;;;;17.48;100.00;101184.25;4994324;28;20026;-85
2022/09/01 01:16:23;;;;;;;6.70;1.50;;;;;;;17.44;100.00;101181.00;4994283;28;20109;-85
2022/09/01 01:18:48;;;;;;;7.65;1.67;;;;;;;17.36;100.00;101182.66;4994129;28;20026;-85
2022/09/01 01:24:18;;;;;;;10.35;1.75;;;;;;;17.29;100.00;101165.53;4994140;28;20061;-85
2022/09/01 01:26:43;;;;;;;4.55;0.98;;;;;;;17.36;100.00;101166.72;4996163;28;20031;-85
2022/09/01 01:29:09;;;;;;;6.15;1.10;;;;;;;17.25;100.00;101172.91;4993918;28;20093;-85
2022/09/01 01:31:35;;;;;;;4.32;1.02;;;;;;;17.14;100.00;101165.00;4994139;28;20095;-85
2022/09/01 01:34:00;;;;;;;5.63;1.45;;;;;;;17.08;100.00;101169.03;4993949;28;20026;-85
2022/09/01 01:36:35;;;;;;;4.35;1.10;;;;;;;17.11;100.00;101160.81;4992372;28;20026;-85
2022/09/01 01:39:15;;;;;;;7.55;2.03;;;;;;;16.97;100.00;101163.78;4994166;28;20084;-85
2022/09/01 01:41:43;;;;;;;3.25;1.45;;;;;;;17.06;100.00;101165.63;4994739;28;20087;-85
2022/09/01 01:44:11;;;;;;;6.43;1.20;;;;;;;17.13;100.00;101163.34;4995535;28;20028;-85
2022/09/01 01:46:43;;;;;;;6.10;1.20;;;;;;;17.06;100.00;101165.63;4995584;28;20030;-85
2022/09/01 01:49:12;;;;;;;3.65;1.10;;;;;;;17.12;100.00;101166.94;4993373;28;20543;-85
2022/09/01 01:51:38;;;;;;;3.30;1.10;;;;;;;16.99;100.00;101157.38;4993570;28;20026;-85
2022/09/01 01:54:04;;;;;;;4.55;1.13;;;;;;;17.02;100.00;101159.78;4993700;28;20094;-85
2022/09/01 01:56:31;;;;;;;7.40;1.48;;;;;;;16.99;100.00;101164.50;4995512;28;20052;-85
2022/09/01 01:58:57;;;;;;;3.78;1.13;;;;;;;16.87;100.00;101155.72;4995257;28;20108;-85
2022/09/01 02:01:27;;;;;;;5.15;1.75;;;;;;;16.90;100.00;101160.75;4993279;28;20073;-85
2022/09/01 02:03:54;;;;;;;3.22;1.23;;;;;;;16.94;100.00;101154.28;4993321;28;20027;-86
2022/09/01 02:06:23;;;;;;;5.45;1.45;;;;;;;16.99;100.00;101144.09;4993228;28;20117;-85
2022/09/01 02:08:51;;;;;;;8.38;2.15;;;;;;;16.93;100.00;101141.97;4992966;28;20041;-85
2022/09/01 02:11:17;;;;;;;2.03;1.10;;;;;;;17.01;100.00;101150.13;4993294;28;20025;-85
2022/09/01 02:13:43;;;;;;;4.38;1.40;;;;;;;16.84;100.00;101151.53;4994026;28;20108;-85
2022/09/01 02:16:13;;;;;;;3.15;1.20;;;;;;;16.88;100.00;101152.09;4991959;28;20037;-85
2022/09/01 02:18:43;;;;;;;4.43;1.45;;;;;;;16.84;100.00;101140.94;4993078;28;20022;-86
2022/09/01 02:21:10;;;;;;;3.97;1.02;;;;;;;16.91;100.00;101141.25;4992916;28;20104;-85
2022/09/01 02:23:37;;;;;;;7.95;1.25;;;;;;;17.01;100.00;101142.16;4993566;28;20033;-85
2022/09/01 02:26:05;;;;;;;5.70;1.20;;;;;;;16.90;100.00;101139.56;4991578;28;20427;-85
2022/09/01 02:28:35;;;;;;;10.13;1.50;;;;;;;16.69;100.00;101146.63;4994548;28;20026;-86
2022/09/01 02:31:02;;;;;;;4.13;0.98;;;;;;;16.68;100.00;101129.00;5007951;28;20030;-86
2022/09/01 02:33:29;;;;;;;5.25;1.30;;;;;;;16.84;100.00;101138.28;4992857;28;20027;-85
2022/09/01 02:35:58;;;;;;;7.50;1.00;;;;;;;16.72;100.00;101128.63;4992767;28;20093;-86
2022/09/01 02:38:26;;;;;;;12.38;1.65;;;;;;;16.71;100.00;101134.06;4992641;28;20041;-86
2022/09/01 02:40:52;;;;;;;6.03;1.10;;;;;;;16.87;100.00;101123.06;4992793;28;20473;-86
2022/09/01 02:43:19;;;;;;;7.80;1.33;;;;;;;16.63;100.00;101127.59;4994577;28;20062;-85
2022/09/01 02:45:53;;;;;;;9.77;1.55;;;;;;;16.82;100.00;101123.44;4994244;28;20085;-85
2022/09/01 02:48:21;;;;;;;6.28;1.50;;;;;;;16.88;100.00;101125.56;4992580;28;20042;-85
2022/09/01 02:50:46;;;;;;;4.63;1.23;;;;;;;17.01;100.00;101120.94;4992609;28;20106;-85
2022/09/01 02:53:14;;;;;;;6.65;1.30;;;;;;;16.96;100.00;101123.16;4992628;28;20072;-85
2022/09/01 02:55:40;;;;;;;5.07;1.38;;;;;;;17.08;100.00;101118.63;4992523;28;20062;-85
2022/09/01 02:58:09;;;;;;;5.07;1.63;;;;;;;16.96;100.00;101114.31;4992055;28;20081;-85
2022/09/01 03:00:36;;;;;;;3.30;1.25;;;;;;;16.90;100.00;101122.78;4994832;28;20018;-85
2022/09/01 03:03:02;;;;;;;4.43;1.17;;;;;;;17.02;100.00;101112.03;4991325;28;20084;-86
2022/09/01 03:05:29;;;;;;;6.32;1.33;;;;;;;16.99;100.00;101109.59;4991056;28;20472;-85
2022/09/01 03:07:59;;;;;;;4.10;1.55;;;;;;;17.14;100.00;101103.97;4992152;28;20109;-85
2022/09/01 03:10:35;;;;;;;4.18;1.20;;;;;;;17.01;100.00;101105.00;4992513;28;20022;-86
2022/09/01 03:13:07;;;;;;;4.45;1.42;;;;;;;17.16;100.00;101102.03;4992411;28;20030;-85
2022/09/01 03:15:35;;;;;;;4.95;2.38;;;;;;;17.34;100.00;101094.34;4994261;28;20476;-85
2022/09/01 03:18:02;;;;;;;5.28;1.40;;;;;;;17.04;100.00;101080.03;4992492;28;20464;-85
2022/09/01 03:20:32;;;;;;;6.72;1.67;;;;;;;17.13;100.00;101078.44;4991329;28;20050;-85
2022/09/01 03:22:59;;;;;;;3.80;1.20;;;;;;;17.15;100.00;101081.78;4992414;28;20034;-86
2022/09/01 03:25:25;;;;;;;8.10;1.17;;;;;;;17.19;100.00;101077.91;4990752;28;20026;-86
2022/09/01 03:27:51;;;;;;;6.85;1.73;;;;;;;16.95;100.00;101076.34;4992137;28;20077;-85
2022/09/01 03:30:18;;;;;;;5.93;1.83;;;;;;;17.05;100.00;101074.59;4994244;28;20035;-85
2022/09/01 03:32:43;;;;;;;7.22;1.95;;;;;;;17.25;100.00;101074.72;4995387;28;20033;-85
2022/09/01 03:35:10;;;;;;;5.80;1.52;;;;;;;17.13;100.00;101065.16;4996215;28;20105;-85
2022/09/01 03:37:36;;;;;;;7.18;1.67;;;;;;;16.94;100.00;101057.91;4995963;28;20053;-86
2022/09/01 03:40:04;;;;;;;4.68;1.27;;;;;;;17.07;100.00;101060.38;4994530;28;20026;-86
2022/09/01 03:42:30;;;;;;;11.05;1.83;;;;;;;16.98;100.00;101048.72;4996023;28;20030;-85
2022/09/01 03:44:56;;;;;;;4.50;1.20;;;;;;;17.11;100.00;101064.44;4997683;28;20034;-86
2022/09/01 03:47:22;;;;;;;4.18;1.23;;;;;;;17.17;100.00;101058.63;4995735;28;20477;-85
2022/09/01 03:49:48;;;;;;;6.20;1.52;;;;;;;16.98;100.00;101054.88;4995927;28;20026;-85
2022/09/01 03:52:16;;;;;;;5.65;1.13;;;;;;;17.17;100.00;101053.31;4995636;28;20399;-85
2022/09/01 03:54:42;;;;;;;6.80;1.60;;;;;;;17.05;100.00;101048.06;4995976;28;20053;-86
2022/09/01 03:57:09;;;;;;;10.15;2.03;;;;;;;17.33;100.00;101056.31;4995600;28;20052;-85
2022/09/01 03:59:36;;;;;;;3.75;1.50;;;;;;;17.26;100.00;101039.25;4997497;28;20034;-85
2022/09/01 04:02:02;;;;;;;4.50;1.33;;;;;;;17.01;100.00;101040.50;5010579;28;20049;-85
2022/09/01 04:04:31;;;;;;;3.65;1.33;;;;;;;17.25;100.00;101033.09;4995471;28;20538;-85
2022/09/01 04:06:58;;;;;;;10.13;1.60;;;;;;;17.36;100.00;101034.84;4995347;28;20018;-85
2022/09/01 04:09:24;;;;;;;5.68;1.10;;;;;;;17.23;100.00;101035.03;4995470;28;20060;-85
2022/09/01 04:11:51;;;;;;;7.93;1.50;;;;;;;17.07;100.00;101034.69;4994326;28;20046;-86
2022/09/01 04:14:17;;;;;;;7.13;1.08;;;;;;;17.36;100.00;101042.78;4995381;28;20113;-85
2022/09/01 04:19:29;;;;;;;6.32;1.67;;;;;;;17.51;100.00;101030.00;4995178;28;20041;-85
2022/09/01 04:21:58;;;;;;;7.28;1.52;;;;;;;17.34;100.00;101027.97;4995186;28;20027;-86
2022/09/01 04:24:27;;;;;;;5.32;1.30;;;;;;;17.50;100.00;101020.34;4995295;28;20145;-85
2022/09/01 04:26:54;;;;;;;9.32;1.67;;;;;;;17.37;100.00;101020.56;4994948;28;20076;-85
2022/09/01 04:29:27;;;;;;;4.53;1.27;;;;;;;17.28;100.00;101020.53;4995252;28;20030;-85
2022/09/01 04:31:54;;;;;;;5.43;1.70;;;;;;;17.16;100.00;101020.63;4996951;28;20100;-85
2022/09/01 04:34:21;;;;;;;9.10;1.65;;;;;;;17.36;100.00;101016.25;4994925;28;20451;-85
2022/09/01 04:36:47;;;;;;;15.18;2.78;;;;;;;17.29;100.00;101028.38;4993473;28;20034;-85
2022/09/01 04:39:13;;;;;;;12.40;1.95;;;;;;;17.61;100.00;101019.41;4994724;28;20468;-85
2022/09/01 04:41:44;;;;;;;9.07;1.85;;;;;;;17.59;100.00;101018.69;4994816;28;20041;-85
2022/09/01 04:44:11;;;;;;;6.95;1.40;;;;;;;17.68;100.00;101017.91;4994784;28;20496;-85
2022/09/01 04:46:46;;;;;;;10.43;1.60;;;;;;;17.81;100.00;101013.19;4996334;28;20489;-85
2022/09/01 04:49:18;;;;;;;4.97;1.52;;;;;;;17.62;100.00;101013.13;4994594;28;20026;-85
2022/09/01 04:51:45;;;;;;;7.80;1.73;;;;;;;17.72;100.00;101008.69;4994716;28;20030;-85
2022/09/01 04:54:13;;;;;;;8.25;1.40;;;;;;;17.70;100.00;101010.63;4994470;28;20118;-85
2022/09/01 04:56:44;;;;;;;7.22;1.33;;;;;;;17.61;100.00;101007.00;4994600;28;20023;-85
2022/09/01 04:59:11;;;;;;;8.30;1.40;;;;;;;17.62;100.00;101007.81;4994453;28;20034;-86
2022/09/01 05:01:49;;;;;;;9.30;1.30;;;;;;;17.65;100.00;101004.88;4996273;28;20030;-85
2022/09/01 05:04:21;;;;;;;7.28;1.25;;;;;;;17.88;100.00;101000.22;4994445;28;20022;-85
2022/09/01 05:06:54;;;;;;;6.13;1.38;;;;;;;17.76;100.00;101003.94;4994280;28;20141;-86
2022/09/01 05:09:20;;;;;;;4.55;1.40;;;;;;;17.89;100.00;101006.34;4994505;28;20049;-86
2022/09/01 05:11:47;;;;;;;8.32;1.83;;;;;;;17.83;100.00;100992.66;4994480;28;20104;-85
2022/09/01 05:14:13;;;;;;;7.47;1.50;;;;;;;17.80;100.00;101003.53;4994179;28;20144;-85
2022/09/01 05:16:41;;;;;;;10.07;1.90;;;;;;;17.62;100.00;101008.66;4996153;28;20512;-85
2022/09/01 05:19:13;;;;;;;8.38;1.52;;;;;;;17.79;100.00;101004.50;4994107;28;20106;-85
2022/09/01 05:21:41;;;;;;;11.63;1.75;;;;;;;17.74;100.00;100998.75;4994087;28;20030;-86
2022/09/01 05:24:07;;;;;;;6.60;1.48;;;;;;;17.90;100.00;100995.59;4994439;28;20172;-85
2022/09/01 05:26:33;;;;;;;7.97;1.98;;;;;;;17.75;100.00;101000.44;4993933;28;20034;-85
2022/09/01 05:29:09;;;;;;;7.30;1.30;;;;;;;17.78;100.00;100989.53;4993943;28;20046;-85
2022/09/01 05:31:36;;;;;;;6.50;1.67;;;;;;;17.59;100.00;100992.16;4995751;28;20018;-85
2022/09/01 05:34:03;;;;;;;6.32;1.58;;;;;;;17.82;100.00;100987.47;4994191;28;20050;-85
2022/09/01 05:36:32;;;;;;;10.15;2.58;;;;;;;17.70;100.00;100996.53;4993649;28;20018;-85
2022/09/01 05:38:59;;;;;;;9.75;2.13;;;;;;;17.73;100.00;100996.22;4993767;28;20034;-85
2022/09/01 05:41:25;;;;;;;6.78;1.80;;;;;;;17.43;100.00;100995.31;4993740;28;20487;-86
2022/09/01 05:43:51;;;;;;;10.60;1.92;;;;;;;17.81;100.00;101002.56;4993520;28;20026;-85
2022/09/01 05:46:20;;;;;;;8.52;2.33;;;;;;;17.78;100.00;100986.88;4994031;28;20034;-85
2022/09/01 05:48:48;;;;;;;12.93;2.65;;;;;;;17.65;100.00;100991.59;4994234;28;20026;-86
2022/09/01 05:51:21;;;;;;;5.43;1.52;;;;;;;17.74;100.00;100985.47;4993405;28;20030;-86
2022/09/01 05:53:50;;;;;;;5.53;2.35;;;;;;;18.05;100.00;100988.09;4991741;28;20416;-86
2022/09/01 05:56:18;;;;;;;7.43;1.60;;;;;;;17.77;100.00;100987.88;4993299;28;20027;-86
2022/09/01 05:58:45;;;;;;;4.78;1.50;;;;;;;17.94;100.00;100977.56;4995320;28;20030;-86
2022/09/01 06:01:20;;;;;;;6.80;1.40;;;;;;;18.24;100.00;100973.94;4993395;28;20464;-87
2022/09/01 06:03:49;;;;;;;16.48;2.40;;;;;;;18.07;100.00;100972.84;4993361;28;20033;-86
2022/09/01 06:06:15;;;;;;;8.48;2.13;;;;;;;18.21;100.00;100980.38;4991918;28;20382;-86
2022/09/01 06:08:41;;;;;;;4.80;1.73;;;;;;;18.28;100.00;100979.81;4993043;28;20033;-86
2022/09/01 06:11:12;;;;;;;5.95;1.38;;;;;;;18.34;100.00;100977.44;4993176;28;20145;-87
2022/09/01 06:13:40;;;;;;;11.32;1.65;;;;;;;18.14;100.00;100976.59;5007235;28;20120;-87
2022/09/01 06:16:08;;;;;;;7.28;1.88;;;;;;;18.30;100.00;100981.34;5006764;28;20476;-86
2022/09/01 06:18:35;;;;;;;15.27;2.35;;;;;;;18.20;100.00;100977.88;5002767;28;20034;-87
2022/09/01 06:21:03;;;;;;;7.38;1.55;;;;;;;18.28;100.00;100978.00;5004735;28;20018;-86
2022/09/01 06:23:30;;;;;;;12.90;2.03;;;;;;;17.89;100.00;100975.34;5012445;28;20030;-87
2022/09/01 06:25:57;;;;;;;12.75;2.40;;;;;;;18.11;100.00;100976.03;5007384;28;20031;-86
2022/09/01 06:28:22;;;;;;;9.63;1.90;;;;;;;18.30;100.00;100984.00;4997154;28;20462;-86
2022/09/01 06:30:49;;;;;;;13.43;1.83;;;;;;;18.14;100.00;100981.91;5011667;28;20064;-87
2022/09/01 06:33:15;;;;;;;6.57;2.17;;;;;;;18.09;100.00;100993.94;4998815;28;20113;-87
2022/09/01 06:35:43;;;;;;;4.78;1.60;;;;;;;18.46;100.00;100985.28;4994100;28;20113;-86
2022/09/01 06:38:11;;;;;;;6.60;2.00;;;;;;;18.72;100.00;100986.38;5012320;28;20117;-86
2022/09/01 06:40:39;;;;;;;7.00;1.80;;;;;;;18.51;100.00;100985.69;5011470;28;20034;-86
2022/09/01 06:43:08;;;;;;;7.55;1.38;;;;;;;18.77;100.00;100980.59;5012127;28;20380;-86
2022/09/01 06:45:53;;;;;;;7.70;1.80;;;;;;;18.67;100.00;100991.25;5008699;28;20105;-86
2022/09/01 06:48:18;;;;;;;13.52;1.67;;;;;;;18.65;100.00;100989.75;4998088;28;20041;-86
2022/09/01 06:50:44;;;;;;;13.20;2.22;;;;;;;18.80;100.00;100985.69;5003269;28;20021;-86
2022/09/01 06:53:12;;;;;;;9.13;2.10;;;;;;;18.96;100.00;100983.25;5010543;28;20038;-85
2022/09/01 06:55:39;;;;;;;8.02;2.38;;;;;;;18.65;100.00;100977.28;4994537;28;20171;-86
2022/09/01 06:58:06;;;;;;;15.13;2.97;;;;;;;18.94;100.00;100987.88;4993466;28;20034;-85
2022/09/01 07:00:40;;;;;;;11.73;2.85;;;;;;;18.57;100.00;100980.63;5011055;28;20034;-85
2022/09/01 07:03:08;;;;;;;7.18;2.00;;;;;;;18.75;100.00;100987.88;5010356;28;20026;-85
2022/09/01 07:05:37;;;;;;;7.90;1.67;;;;;;;19.00;100.00;100981.97;5000248;28;20038;-85
2022/09/01 07:08:09;;;;;;;12.10;2.00;;;;;;;19.49;100.00;100994.22;5015282;28;20022;-86
2022/09/01 07:10:46;;;;;;;9.38;1.70;;;;;;;19.10;100.00;100989.94;5011980;28;20045;-85
2022/09/01 07:13:17;;;;;;;11.55;2.13;;;;;;;18.98;100.00;100994.59;5016159;28;20061;-85
2022/09/01 07:15:43;;;;;;;6.00;1.80;;;;;;;19.39;100.00;100997.81;5010295;28;20026;-85
2022/09/01 07:18:11;;;;;;;17.50;2.90;;;;;;;19.38;100.00;100990.78;5013217;28;20072;-86
2022/09/01 07:20:40;;;;;;;11.80;2.58;;;;;;;19.58;100.00;100999.50;4996748;28;20533;-85
2022/09/01 07:23:07;;;;;;;9.93;1.88;;;;;;;19.73;100.00;100997.22;4995621;28;20030;-86
2022/09/01 07:25:38;;;;;;;9.20;1.60;;;;;;;19.41;100.00;100998.50;5009150;28;20045;-86
2022/09/01 07:28:04;;;;;;;7.75;1.73;;;;;;;19.21;100.00;101000.41;4999797;28;20117;-86
2022/09/01 07:30:30;;;;;;;7.70;2.30;;;;;;;19.27;100.00;101006.09;4996374;28;20041;-85
2022/09/01 07:32:56;;;;;;;5.65;2.35;;;;;;;19.66;100.00;101001.44;5007917;28;20034;-86
2022/09/01 07:35:22;;;;;;;10.82;2.22;;;;;;;19.98;100.00;101000.13;5018954;28;20033;-86
2022/09/01 07:37:49;;;;;;;8.98;1.67;;;;;;;19.75;100.00;100989.91;4997153;28;20404;-86
2022/09/01 07:40:17;;;;;;;9.82;2.53;;;;;;;19.73;100.00;100997.22;4996024;28;20496;-85
2022/09/01 07:42:43;;;;;;;5.43;1.60;;;;;;;19.99;99.98;100980.50;4995683;28;20098;-85
2022/09/01 07:45:11;;;;;;;7.95;1.70;;;;;;;20.60;96.18;100974.38;4995630;28;20031;-86
2022/09/01 07:47:37;;;;;;;8.98;2.65;;;;;;;20.42;96.73;100989.56;4996331;28;20026;-85
2022/09/01 07:50:05;;;;;;;3.63;1.55;;;;;;;21.09;93.91;100989.88;4995713;28;20671;-86
2022/09/01 07:52:32;;;;;;;8.40;2.28;;;;;;;21.08;94.05;100993.53;4997961;28;20031;-86
2022/09/01 07:54:58;;;;;;;7.50;1.55;;;;;;;21.44;92.05;100987.22;4995884;28;20057;-85
2022/09/01 07:57:23;;;;;;;9.40;1.60;;;;;;;21.16;93.07;100987.41;4995667;28;20485;-86
2022/09/01 07:59:54;;;;;;;10.95;2.33;;;;;;;21.38;91.89;100984.16;4995735;28;20392;-86
2022/09/01 08:02:19;;;;;;;10.95;1.80;;;;;;;21.82;89.67;100974.28;4995587;28;20057;-86
2022/09/01 08:04:45;;;;;;;9.13;2.53;;;;;;;21.83;89.03;100974.13;4995551;28;20388;-86
2022/09/01 08:07:10;;;;;;;5.90;1.65;;;;;;;22.32;86.80;100976.06;5006451;28;20434;-86
2022/09/01 08:09:37;;;;;;;8.68;1.40;;;;;;;22.45;86.41;100973.69;5015005;28;20030;-86
2022/09/01 08:12:04;;;;;;;10.65;1.92;;;;;;;22.04;88.00;100972.81;5015235;28;20109;-86
2022/09/01 08:14:30;;;;;;;5.32;1.48;;;;;;;22.33;86.97;100977.72;5013786;28;20028;-86
2022/09/01 08:16:56;;;;;;;8.75;2.17;;;;;;;23.64;81.43;100972.06;5014501;28;20026;-86
2022/09/01 08:19:21;;;;;;;6.80;1.38;;;;;;;24.41;76.20;100981.94;5015176;28;20037;-86
2022/09/01 08:21:47;;;;;;;13.95;2.13;;;;;;;25.11;71.07;100969.16;5013645;28;20109;-86
2022/09/01 08:24:13;;;;;;;8.45;1.65;;;;;;;23.90;76.19;100977.09;5014765;28;20109;-86
2022/09/01 08:26:39;;;;;;;7.60;1.73;;;;;;;22.90;80.61;100982.19;5015181;28;20372;-86
2022/09/01 08:29:04;;;;;;;11.40;1.88;;;;;;;22.22;85.01;100975.38;5014630;28;20017;-86
2022/09/01 08:31:31;;;;;;;9.18;2.00;;;;;;;21.54;87.73;100977.22;5014559;28;20029;-86
2022/09/01 08:33:57;;;;;;;14.27;1.83;;;;;;;21.53;90.29;100978.25;5014560;28;20022;-86
2022/09/01 08:36:23;;;;;;;10.88;2.50;;;;;;;20.43;95.75;100977.06;5006600;28;20153;-86
2022/09/01 08:38:48;;;;;;;8.32;1.75;;;;;;;21.33;92.75;100970.47;4994913;28;20058;-86
2022/09/01 08:41:21;;;;;;;8.07;2.28;;;;;;;21.54;90.71;100978.09;4993606;28;20033;-86
2022/09/01 08:44:15;;;;;;;7.60;1.48;;;;;;;21.78;89.77;100974.66;4993612;28;20022;-86
2022/09/01 08:46:42;;;;;;;8.82;1.95;;;;;;;21.68;90.38;100970.41;4994687;28;20033;-86
2022/09/01 08:49:28;;;;;;;11.73;1.95;;;;;;;23.42;79.42;100962.97;4994859;28;20018;-86
2022/09/01 08:52:05;;;;;;;7.50;1.55;;;;;;;23.92;78.28;100974.25;4997081;28;20029;-86
2022/09/01 08:54:48;;;;;;;13.10;2.05;;;;;;;22.76;82.28;100962.31;4994767;28;20038;-85
2022/09/01 08:57:26;;;;;;;6.25;1.30;;;;;;;22.51;83.84;100954.31;4994457;28;20038;-86
2022/09/01 08:59:52;;;;;;;8.73;1.30;;;;;;;23.70;78.71;100952.56;4994380;28;20026;-86
2022/09/01 09:02:42;;;;;;;7.72;1.38;;;;;;;23.65;79.32;100905.84;4994507;28;20124;-86
2022/09/01 09:05:22;;;;;;;8.10;1.67;;;;;;;23.57;78.37;100949.63;4992931;28;20034;-86
2022/09/01 09:08:01;;;;;;;11.93;1.58;;;;;;;23.73;77.67;100960.25;5011562;28;20029;-86
2022/09/01 09:10:55;;;;;;;11.43;1.60;;;;;;;24.19;75.65;100954.09;5013781;28;20071;-86
2022/09/01 09:13:31;;;;;;;6.88;1.40;;;;;;;25.62;66.83;100950.38;5013904;28;20045;-86
2022/09/01 09:16:01;;;;;;;7.90;1.63;;;;;;;23.92;73.61;100961.69;5013777;28;20455;-86
2022/09/01 09:18:49;;;;;;;7.20;1.80;;;;;;;25.94;67.91;100955.50;5013680;28;20595;-86
2022/09/01 09:21:42;;;;;;;7.63;1.45;;;;;;;25.66;66.42;100951.66;5012456;28;20026;-86
2022/09/01 09:24:49;;;;;;;7.03;1.85;;;;;;;25.19;66.95;100954.78;5011279;28;20042;-86
2022/09/01 09:27:29;;;;;;;7.07;1.65;;;;;;;24.63;70.58;100947.19;5003014;28;20399;-86
2022/09/01 09:29:59;;;;;;;7.82;1.65;;;;;;;24.71;70.22;100956.00;5012642;28;20040;-86
2022/09/01 09:32:49;;;;;;;7.18;2.05;;;;;;;25.83;66.01;100951.41;5013557;28;20034;-86
2022/09/01 09:35:20;;;;;;;4.38;1.10;;;;;;;25.36;65.71;100940.16;5012263;28;20088;-87
2022/09/01 09:37:45;;;;;;;7.10;1.40;;;;;;;25.51;67.10;100948.16;5011862;28;20072;-86
2022/09/01 09:40:17;;;;;;;5.57;1.75;;;;;;;24.97;68.08;100945.81;5013449;28;20022;-86
2022/09/01 09:42:55;;;;;;;8.07;1.30;;;;;;;25.83;64.51;100946.03;5013398;28;20028;-87
2022/09/01 09:45:27;;;;;;;6.97;1.60;;;;;;;25.59;64.95;100942.69;5013327;28;20030;-86
2022/09/01 09:47:55;;;;;;;8.20;1.10;;;;;;;27.61;57.47;100936.69;5013140;28;20030;-86
2022/09/01 09:50:30;;;;;;;6.80;1.10;;;;;;;31.39;47.38;100928.72;5011482;28;20030;-87
2022/09/01 09:53:13;;;;;;;5.95;1.17;;;;;;;30.27;47.54;100934.28;5012972;28;20022;-87
2022/09/01 09:55:50;;;;;;;;;;;;;;;30.94;43.43;100931.78;5013462;28;20044;-87
2022/09/01 09:58:16;;;;;;;;;;;;;;;32.07;40.86;100940.31;5011832;28;20390;-87
2022/09/01 10:00:56;;;;;;;;;;;;;;;30.58;43.07;100919.03;5012281;28;19913;-87
2022/09/01 10:03:32;;;;;;;;;;;;;;;31.51;40.53;100925.25;5013276;28;20387;-87
2022/09/01 10:05:57;;;;;;;;;;;;;;;31.71;40.21;100919.53;5010862;28;19914;-87
2022/09/01 10:08:26;;;;;;;;;;;;;;;31.22;42.04;100928.53;5013199;28;19920;-87
2022/09/01 10:10:51;;;;;;;;;;;;;;;32.19;40.16;100908.53;5013429;28;20012;-88
2022/09/01 10:13:21;;;;;;;;;;;;;;;33.26;37.49;100908.41;5010388;28;20382;-87
2022/09/01 10:15:48;;;;;;;;;;;;;;;32.31;38.68;100911.25;5013218;28;19914;-87
2022/09/01 10:18:16;;;;;;;;;;;;;;;31.72;41.01;100910.34;5013214;28;19921;-87
2022/09/01 10:20:47;;;;;;;;;;;;;;;33.64;37.77;100909.66;5013140;28;20030;-87
2022/09/01 10:23:12;;;;;;;;;;;;;;;34.97;35.77;100900.75;5013054;28;19929;-87
2022/09/01 10:25:39;;;;;;;;;;;;;;;33.35;37.51;100896.03;5012887;28;19913;-87
2022/09/01 10:28:10;;;;;;;;;;;;;;;33.56;36.66;100887.19;5011809;28;19963;-87
2022/09/01 10:30:41;;;;;;;;;;;;;;;33.33;36.55;100900.91;5012966;28;19910;-87
2022/09/01 10:33:06;;;;;;;;;;;;;;;33.03;37.17;100903.84;5011716;28;20334;-87
2022/09/01 10:35:34;;;;;;;;;;;;;;;33.31;36.23;100897.59;5012778;28;19910;-87
2022/09/01 10:38:02;;;;;;;;;;;;;;;32.76;37.33;100896.22;5012819;28;20307;-87
2022/09/01 10:40:27;;;;;;;;;;;;;;;34.39;34.87;100883.06;5010768;28;20397;-87
2022/09/01 10:42:54;;;;;;;;;;;;;;;33.03;36.11;100893.78;5012695;28;19913;-87
2022/09/01 10:45:34;;;;;;;6.60;1.65;;;;;;;30.74;39.81;100888.63;5003019;28;19917;-87
2022/09/01 10:48:18;;;;;;;;;;;;;;;32.37;39.53;100888.56;4993942;28;19968;-87
2022/09/01 10:50:45;;;;;;;;;;;;;;;31.45;38.63;100877.31;4993088;28;19968;-86
2022/09/01 10:53:31;;;;;;;;;;;;;;;31.15;40.28;100884.38;4992789;28;19991;-86
2022/09/01 10:56:34;;;;;;;7.97;1.83;;;;;;;31.19;40.19;100890.19;4993972;28;20453;-86
2022/09/01 10:59:21;;;;;;;9.52;1.60;;;;;;;30.28;40.92;100883.69;4992465;28;20037;-86
2022/09/01 11:01:47;;;;;;;7.03;1.40;;;;;;;30.40;41.62;100881.91;4991151;28;20490;-87
2022/09/01 11:04:19;;;;;;;9.00;1.38;;;;;;;30.27;41.25;100892.84;4992441;28;20130;-86
2022/09/01 11:06:52;;;;;;;7.07;1.63;;;;;;;30.97;39.98;100884.44;4999693;28;20495;-87
2022/09/01 11:09:23;;;;;;;8.48;1.55;;;;;;;29.85;42.12;100890.69;5012057;28;20026;-86
2022/09/01 11:12:27;;;;;;;6.80;1.45;;;;;;;29.19;42.10;100892.75;5012448;28;20022;-87
2022/09/01 11:14:55;;;;;;;7.22;1.60;;;;;;;28.72;42.82;100886.66;4995691;28;20418;-86
2022/09/01 11:17:36;;;;;;;6.47;1.42;;;;;;;29.85;41.50;100877.16;5006170;28;20030;-86
2022/09/01 11:20:08;;;;;;;5.93;1.45;;;;;;;29.94;42.44;100872.28;4992301;28;20058;-86
2022/09/01 11:22:39;;;;;;;;;;;;;;;29.22;42.95;100881.50;4992689;28;20030;-86
2022/09/01 11:25:33;;;;;;;4.38;1.23;;;;;;;28.20;44.85;100878.44;4991125;28;20411;-86
2022/09/01 11:28:14;;;;;;;5.28;1.80;;;;;;;29.94;42.25;100881.25;4991907;28;20030;-86
2022/09/01 11:30:44;;;;;;;9.30;1.40;;;;;;;30.18;41.09;100881.47;4992085;28;20026;-86
2022/09/01 11:33:57;;;;;;;6.13;1.25;;;;;;;30.11;40.60;100880.69;5004020;28;20113;-87
2022/09/01 11:36:27;;;;;;;5.90;1.13;;;;;;;28.69;42.27;100881.66;4973181;28;20034;-86
2022/09/01 11:39:02;;;;;;;11.45;1.33;;;;;;;28.28;43.67;100866.59;5007544;28;20526;-86
2022/09/01 11:41:32;;;;;;;5.65;1.00;;;;;;;31.03;40.16;100864.53;4992673;28;20038;-86